sensor_id;sensor_type;location;lat;lon;timestamp;pressure;altitude;pressure_sealevel;temperature;humidity
52105;BME280;38103;42.776;23.112;2023-01-04T00:01:23;94892.66;;;6.99;100.00
52105;BME280;38103;42.776;23.112;2023-01-04T00:03:49;94897.56;;;7.02;100.00
52105;BME280;38103;42.776;23.112;2023-01-04T00:06:15;94880.91;;;6.95;100.00
52105;BME280;38103;42.776;23.112;2023-01-04T00:08:41;94888.22;;;7.00;100.00
52105;BME280;38103;42.776;23.112;2023-01-04T00:11:13;94892.41;;;6.94;100.00
52105;BME280;38103;42.776;23.112;2023-01-04T00:13:39;94892.03;;;6.97;100.00
52105;BME280;38103;42.776;23.112;2023-01-04T00:16:07;94883.72;;;6.93;100.00
52105;BME280;38103;42.776;23.112;2023-01-04T00:18:33;94895.28;;;6.99;100.00
52105;BME280;38103;42.776;23.112;2023-01-04T00:21:16;94887.78;;;6.96;100.00
52105;BME280;38103;42.776;23.112;2023-01-04T00:23:44;94882.72;;;6.95;100.00
52105;BME280;38103;42.776;23.112;2023-01-04T00:26:14;94885.53;;;6.93;100.00
52105;BME280;38103;42.776;23.112;2023-01-04T00:28:40;94891.41;;;6.95;100.00
52105;BME280;38103;42.776;23.112;2023-01-04T00:31:08;94889.53;;;6.89;100.00
52105;BME280;38103;42.776;23.112;2023-01-04T00:33:33;94885.91;;;6.90;100.00
52105;BME280;38103;42.776;23.112;2023-01-04T00:36:21;94888.91;;;6.87;100.00
52105;BME280;38103;42.776;23.112;2023-01-04T00:38:46;94891.59;;;6.93;100.00
52105;BME280;38103;42.776;23.112;2023-01-04T00:41:12;94895.59;;;6.89;100.00
52105;BME280;38103;42.776;23.112;2023-01-04T00:43:38;94861.50;;;6.74;100.00
52105;BME280;38103;42.776;23.112;2023-01-04T00:46:03;94898.03;;;6.91;100.00
52105;BME280;38103;42.776;23.112;2023-01-04T00:48:31;94901.31;;;6.93;100.00
52105;BME280;38103;42.776;23.112;2023-01-04T00:50:56;94896.44;;;6.90;100.00
52105;BME280;38103;42.776;23.112;2023-01-04T00:53:22;94897.16;;;6.84;100.00
52105;BME280;38103;42.776;23.112;2023-01-04T00:55:47;94909.31;;;6.85;100.00
52105;BME280;38103;42.776;23.112;2023-01-04T00:58:13;94906.69;;;6.85;100.00
52105;BME280;38103;42.776;23.112;2023-01-04T01:00:38;94912.19;;;6.90;100.00
52105;BME280;38103;42.776;23.112;2023-01-04T01:03:04;94903.69;;;6.88;100.00
52105;BME280;38103;42.776;23.112;2023-01-04T01:05:32;94880.72;;;6.75;100.00
52105;BME280;38103;42.776;23.112;2023-01-04T01:07:58;94907.94;;;6.89;100.00
52105;BME280;38103;42.776;23.112;2023-01-04T01:10:43;94918.56;;;6.80;100.00
52105;BME280;38103;42.776;23.112;2023-01-04T01:13:09;94910.50;;;6.82;100.00
52105;BME280;38103;42.776;23.112;2023-01-04T01:15:34;94913.31;;;6.80;100.00
52105;BME280;38103;42.776;23.112;2023-01-04T01:17:59;94910.69;;;6.80;100.00
52105;BME280;38103;42.776;23.112;2023-01-04T01:20:25;94908.44;;;6.77;100.00
52105;BME280;38103;42.776;23.112;2023-01-04T01:22:50;94907.78;;;6.75;100.00
52105;BME280;38103;42.776;23.112;2023-01-04T01:25:15;94920.31;;;6.73;100.00
52105;BME280;38103;42.776;23.112;2023-01-04T01:27:41;94912.72;;;6.63;100.00
52105;BME280;38103;42.776;23.112;2023-01-04T01:30:07;94915.19;;;6.65;100.00
52105;BME280;38103;42.776;23.112;2023-01-04T01:32:32;94921.16;;;6.58;100.00
52105;BME280;38103;42.776;23.112;2023-01-04T01:34:58;94907.66;;;6.62;100.00
52105;BME280;38103;42.776;23.112;2023-01-04T01:37:23;94904.22;;;6.61;100.00
52105;BME280;38103;42.776;23.112;2023-01-04T01:39:48;94901.78;;;6.59;100.00
52105;BME280;38103;42.776;23.112;2023-01-04T01:42:20;94910.66;;;6.58;100.00
52105;BME280;38103;42.776;23.112;2023-01-04T01:45:03;94886.25;;;6.43;100.00
52105;BME280;38103;42.776;23.112;2023-01-04T01:47:39;94911.78;;;6.49;100.00
52105;BME280;38103;42.776;23.112;2023-01-04T01:50:32;94903.25;;;6.47;100.00
52105;BME280;38103;42.776;23.112;2023-01-04T01:53:00;94911.13;;;6.47;100.00
52105;BME280;38103;42.776;23.112;2023-01-04T01:55:28;94901.63;;;6.46;100.00
52105;BME280;38103;42.776;23.112;2023-01-04T01:57:55;94899.09;;;6.37;100.00
52105;BME280;38103;42.776;23.112;2023-01-04T02:00:20;94901.53;;;6.39;100.00
52105;BME280;38103;42.776;23.112;2023-01-04T02:03:06;94901.94;;;6.36;100.00
52105;BME280;38103;42.776;23.112;2023-01-04T02:05:34;94896.56;;;6.29;100.00
52105;BME280;38103;42.776;23.112;2023-01-04T02:08:01;94897.75;;;6.26;100.00
52105;BME280;38103;42.776;23.112;2023-01-04T02:10:27;94876.63;;;6.13;100.00
52105;BME280;38103;42.776;23.112;2023-01-04T02:12:54;94900.31;;;6.20;100.00
52105;BME280;38103;42.776;23.112;2023-01-04T02:15:22;94897.69;;;6.20;100.00
52105;BME280;38103;42.776;23.112;2023-01-04T02:18:11;94901.69;;;6.16;100.00
52105;BME280;38103;42.776;23.112;2023-01-04T02:20:44;94889.59;;;6.06;100.00
52105;BME280;38103;42.776;23.112;2023-01-04T02:26:45;94898.50;;;6.05;100.00
52105;BME280;38103;42.776;23.112;2023-01-04T02:32:07;94892.63;;;6.03;100.00
52105;BME280;38103;42.776;23.112;2023-01-04T02:34:44;94890.97;;;6.02;100.00
52105;BME280;38103;42.776;23.112;2023-01-04T02:37:24;94890.78;;;6.03;100.00
52105;BME280;38103;42.776;23.112;2023-01-04T02:40:07;94890.34;;;6.00;100.00
52105;BME280;38103;42.776;23.112;2023-01-04T02:42:43;94896.22;;;6.02;100.00
52105;BME280;38103;42.776;23.112;2023-01-04T02:45:39;94893.53;;;5.95;100.00
52105;BME280;38103;42.776;23.112;2023-01-04T02:48:07;94893.34;;;5.97;100.00
52105;BME280;38103;42.776;23.112;2023-01-04T02:50:52;94896.03;;;5.88;100.00
52105;BME280;38103;42.776;23.112;2023-01-04T02:53:44;94895.69;;;5.91;100.00
52105;BME280;38103;42.776;23.112;2023-01-04T02:59:09;94888.00;;;5.90;100.00
52105;BME280;38103;42.776;23.112;2023-01-04T03:07:48;94889.28;;;5.79;100.00
52105;BME280;38103;42.776;23.112;2023-01-04T03:11:37;94889.44;;;5.77;100.00
52105;BME280;38103;42.776;23.112;2023-01-04T03:13:37;94899.13;;;5.77;100.00
52105;BME280;38103;42.776;23.112;2023-01-04T03:16:09;94887.81;;;5.76;100.00
52105;BME280;38103;42.776;23.112;2023-01-04T03:18:40;94889.34;;;5.70;100.00
52105;BME280;38103;42.776;23.112;2023-01-04T03:21:08;94899.84;;;5.70;100.00
52105;BME280;38103;42.776;23.112;2023-01-04T03:23:38;94896.13;;;5.65;100.00
52105;BME280;38103;42.776;23.112;2023-01-04T03:26:45;94895.84;;;5.59;100.00
52105;BME280;38103;42.776;23.112;2023-01-04T03:29:36;94899.28;;;5.60;100.00
52105;BME280;38103;42.776;23.112;2023-01-04T03:32:32;94904.88;;;5.57;100.00
52105;BME280;38103;42.776;23.112;2023-01-04T03:35:26;94908.16;;;5.59;100.00
52105;BME280;38103;42.776;23.112;2023-01-04T03:41:00;94908.06;;;5.67;100.00
52105;BME280;38103;42.776;23.112;2023-01-04T03:44:00;94905.44;;;5.67;100.00
52105;BME280;38103;42.776;23.112;2023-01-04T03:46:49;94907.72;;;5.70;100.00
52105;BME280;38103;42.776;23.112;2023-01-04T03:49:49;94908.72;;;5.69;100.00
52105;BME280;38103;42.776;23.112;2023-01-04T03:52:23;94850.06;;;5.32;100.00
52105;BME280;38103;42.776;23.112;2023-01-04T03:54:51;94906.72;;;5.72;100.00
52105;BME280;38103;42.776;23.112;2023-01-04T03:57:18;94904.38;;;5.77;100.00
52105;BME280;38103;42.776;23.112;2023-01-04T03:59:51;94899.84;;;5.70;100.00
52105;BME280;38103;42.776;23.112;2023-01-04T04:02:23;94898.22;;;5.69;100.00
52105;BME280;38103;42.776;23.112;2023-01-04T04:04:48;94903.91;;;5.73;100.00
52105;BME280;38103;42.776;23.112;2023-01-04T04:07:32;94897.22;;;5.70;100.00
52105;BME280;38103;42.776;23.112;2023-01-04T04:10:16;94901.09;;;5.75;100.00
52105;BME280;38103;42.776;23.112;2023-01-04T04:12:42;94891.34;;;5.53;100.00
52105;BME280;38103;42.776;23.112;2023-01-04T04:15:07;94898.94;;;5.63;100.00
52105;BME280;38103;42.776;23.112;2023-01-04T04:17:33;94905.44;;;5.67;100.00
52105;BME280;38103;42.776;23.112;2023-01-04T04:19:58;94911.50;;;5.68;100.00
52105;BME280;38103;42.776;23.112;2023-01-04T04:22:24;94914.31;;;5.66;100.00
52105;BME280;38103;42.776;23.112;2023-01-04T04:24:49;94915.59;;;5.70;100.00
52105;BME280;38103;42.776;23.112;2023-01-04T04:27:14;94919.47;;;5.75;100.00
52105;BME280;38103;42.776;23.112;2023-01-04T04:29:40;94920.13;;;5.77;100.00
52105;BME280;38103;42.776;23.112;2023-01-04T04:32:05;94929.25;;;5.81;100.00
52105;BME280;38103;42.776;23.112;2023-01-04T04:34:30;94926.63;;;5.81;100.00
52105;BME280;38103;42.776;23.112;2023-01-04T04:36:56;94931.53;;;5.84;100.00
52105;BME280;38103;42.776;23.112;2023-01-04T04:39:21;94908.97;;;5.75;100.00
52105;BME280;38103;42.776;23.112;2023-01-04T04:41:46;94939.31;;;5.92;100.00
52105;BME280;38103;42.776;23.112;2023-01-04T04:44:14;94937.31;;;5.95;100.00
52105;BME280;38103;42.776;23.112;2023-01-04T04:46:41;94938.38;;;5.85;100.00
52105;BME280;38103;42.776;23.112;2023-01-04T04:49:08;94911.50;;;5.83;100.00
52105;BME280;38103;42.776;23.112;2023-01-04T04:51:34;94940.22;;;6.00;100.00
52105;BME280;38103;42.776;23.112;2023-01-04T04:54:00;94937.97;;;5.97;100.00
52105;BME280;38103;42.776;23.112;2023-01-04T04:56:25;94890.09;;;5.64;100.00
52105;BME280;38103;42.776;23.112;2023-01-04T04:58:50;94943.13;;;6.05;100.00
52105;BME280;38103;42.776;23.112;2023-01-04T05:01:16;94943.22;;;6.12;100.00
52105;BME280;38103;42.776;23.112;2023-01-04T05:03:42;94947.31;;;6.14;100.00
52105;BME280;38103;42.776;23.112;2023-01-04T05:06:07;94949.94;;;6.14;100.00
52105;BME280;38103;42.776;23.112;2023-01-04T05:08:33;94920.75;;;5.94;100.00
52105;BME280;38103;42.776;23.112;2023-01-04T05:10:58;94933.91;;;6.09;100.00
52105;BME280;38103;42.776;23.112;2023-01-04T05:13:24;94960.34;;;6.23;100.00
52105;BME280;38103;42.776;23.112;2023-01-04T05:15:51;94953.81;;;6.19;100.00
52105;BME280;38103;42.776;23.112;2023-01-04T05:18:18;94962.50;;;6.19;100.00
52105;BME280;38103;42.776;23.112;2023-01-04T05:20:44;94953.09;;;6.25;100.00
52105;BME280;38103;42.776;23.112;2023-01-04T05:23:12;94951.03;;;6.20;100.00
52105;BME280;38103;42.776;23.112;2023-01-04T05:25:38;94964.72;;;6.16;100.00
52105;BME280;38103;42.776;23.112;2023-01-04T05:28:04;94962.72;;;6.18;100.00
52105;BME280;38103;42.776;23.112;2023-01-04T05:30:29;94953.47;;;6.22;100.00
52105;BME280;38103;42.776;23.112;2023-01-04T05:33:13;94951.09;;;6.27;100.00
52105;BME280;38103;42.776;23.112;2023-01-04T05:35:39;94947.50;;;6.28;100.00
52105;BME280;38103;42.776;23.112;2023-01-04T05:38:04;94956.00;;;6.30;100.00
52105;BME280;38103;42.776;23.112;2023-01-04T05:40:30;94921.66;;;6.01;100.00
52105;BME280;38103;42.776;23.112;2023-01-04T05:42:55;94956.00;;;6.30;100.00
52105;BME280;38103;42.776;23.112;2023-01-04T05:45:21;94969.13;;;6.30;100.00
52105;BME280;38103;42.776;23.112;2023-01-04T05:47:51;94967.59;;;6.21;100.00
52105;BME280;38103;42.776;23.112;2023-01-04T05:50:18;94971.56;;;6.17;100.00
52105;BME280;38103;42.776;23.112;2023-01-04T05:52:44;94945.84;;;5.97;100.00
52105;BME280;38103;42.776;23.112;2023-01-04T05:55:10;94964.88;;;6.14;100.00
52105;BME280;38103;42.776;23.112;2023-01-04T05:57:35;94971.56;;;6.17;100.00
52105;BME280;38103;42.776;23.112;2023-01-04T06:00:01;94969.22;;;6.22;100.00
52105;BME280;38103;42.776;23.112;2023-01-04T06:02:29;94974.94;;;6.25;100.00
52105;BME280;38103;42.776;23.112;2023-01-04T06:04:55;94969.06;;;6.23;100.00
52105;BME280;38103;42.776;23.112;2023-01-04T06:07:22;94972.84;;;6.21;100.00
52105;BME280;38103;42.776;23.112;2023-01-04T06:09:47;94976.94;;;6.23;100.00
52105;BME280;38103;42.776;23.112;2023-01-04T06:12:13;94976.09;;;6.23;100.00
52105;BME280;38103;42.776;23.112;2023-01-04T06:14:38;94971.84;;;6.22;100.00
52105;BME280;38103;42.776;23.112;2023-01-04T06:17:04;94977.28;;;6.20;100.00
52105;BME280;38103;42.776;23.112;2023-01-04T06:19:30;94976.47;;;6.20;100.00
52105;BME280;38103;42.776;23.112;2023-01-04T06:21:56;94980.81;;;6.12;100.00
52105;BME280;38103;42.776;23.112;2023-01-04T06:24:21;94982.81;;;6.10;100.00
52105;BME280;38103;42.776;23.112;2023-01-04T06:26:47;94980.47;;;6.16;100.00
52105;BME280;38103;42.776;23.112;2023-01-04T06:29:13;94983.09;;;6.16;100.00
52105;BME280;38103;42.776;23.112;2023-01-04T06:31:38;94938.22;;;5.72;100.00
52105;BME280;38103;42.776;23.112;2023-01-04T06:34:03;94982.66;;;6.03;100.00
52105;BME280;38103;42.776;23.112;2023-01-04T06:36:29;94988.75;;;6.04;100.00
52105;BME280;38103;42.776;23.112;2023-01-04T06:38:58;94993.75;;;6.14;100.00
52105;BME280;38103;42.776;23.112;2023-01-04T06:41:25;94994.56;;;6.14;100.00
52105;BME280;38103;42.776;23.112;2023-01-04T06:43:50;94991.41;;;6.19;100.00
52105;BME280;38103;42.776;23.112;2023-01-04T06:46:15;94973.22;;;6.18;100.00
52105;BME280;38103;42.776;23.112;2023-01-04T06:48:41;94990.69;;;6.25;100.00
52105;BME280;38103;42.776;23.112;2023-01-04T06:51:06;94988.22;;;6.24;100.00
52105;BME280;38103;42.776;23.112;2023-01-04T06:53:32;94987.25;;;6.25;100.00
52105;BME280;38103;42.776;23.112;2023-01-04T06:55:57;94990.69;;;6.25;100.00
52105;BME280;38103;42.776;23.112;2023-01-04T06:58:23;94997.56;;;6.26;100.00
52105;BME280;38103;42.776;23.112;2023-01-04T07:00:53;95005.53;;;6.33;100.00
52105;BME280;38103;42.776;23.112;2023-01-04T07:03:19;95007.53;;;6.31;100.00
52105;BME280;38103;42.776;23.112;2023-01-04T07:05:45;95004.16;;;6.22;100.00
52105;BME280;38103;42.776;23.112;2023-01-04T07:08:11;95014.22;;;6.19;100.00
52105;BME280;38103;42.776;23.112;2023-01-04T07:10:37;94948.88;;;5.85;100.00
52105;BME280;38103;42.776;23.112;2023-01-04T07:13:04;94994.66;;;6.21;100.00
52105;BME280;38103;42.776;23.112;2023-01-04T07:15:30;94986.69;;;6.14;100.00
52105;BME280;38103;42.776;23.112;2023-01-04T07:17:55;95014.59;;;6.31;100.00
52105;BME280;38103;42.776;23.112;2023-01-04T07:20:20;95014.69;;;6.37;100.00
52105;BME280;38103;42.776;23.112;2023-01-04T07:22:46;94969.69;;;6.10;100.00
52105;BME280;38103;42.776;23.112;2023-01-04T07:25:11;94983.34;;;6.21;100.00
52105;BME280;38103;42.776;23.112;2023-01-04T07:27:37;95011.78;;;6.32;100.00
52105;BME280;38103;42.776;23.112;2023-01-04T07:30:03;94984.63;;;6.25;100.00
52105;BME280;38103;42.776;23.112;2023-01-04T07:32:28;95012.69;;;6.40;100.00
52105;BME280;38103;42.776;23.112;2023-01-04T07:34:54;95013.78;;;6.45;100.00
52105;BME280;38103;42.776;23.112;2023-01-04T07:37:19;95018.41;;;6.43;100.00
52105;BME280;38103;42.776;23.112;2023-01-04T07:39:44;95017.84;;;6.48;100.00
52105;BME280;38103;42.776;23.112;2023-01-04T07:42:10;94991.13;;;6.29;100.00
52105;BME280;38103;42.776;23.112;2023-01-04T07:44:35;95016.41;;;6.45;100.00
52105;BME280;38103;42.776;23.112;2023-01-04T07:47:01;95014.94;;;6.43;100.00
52105;BME280;38103;42.776;23.112;2023-01-04T07:49:27;95019.66;;;6.32;100.00
52105;BME280;38103;42.776;23.112;2023-01-04T07:51:52;95026.91;;;6.30;100.00
52105;BME280;38103;42.776;23.112;2023-01-04T07:54:18;95026.19;;;6.36;100.00
52105;BME280;38103;42.776;23.112;2023-01-04T07:56:44;95030.44;;;6.37;100.00
52105;BME280;38103;42.776;23.112;2023-01-04T07:59:11;95027.19;;;6.35;100.00
52105;BME280;38103;42.776;23.112;2023-01-04T08:01:37;95031.19;;;6.31;100.00
52105;BME280;38103;42.776;23.112;2023-01-04T08:04:07;95026.34;;;6.35;100.00
52105;BME280;38103;42.776;23.112;2023-01-04T08:06:34;95031.25;;;6.38;100.00
52105;BME280;38103;42.776;23.112;2023-01-04T08:09:00;95030.78;;;6.34;100.00
52105;BME280;38103;42.776;23.112;2023-01-04T08:11:26;95037.97;;;6.41;100.00
52105;BME280;38103;42.776;23.112;2023-01-04T08:13:51;95047.56;;;6.33;100.00
52105;BME280;38103;42.776;23.112;2023-01-04T08:16:37;95048.91;;;6.29;100.00
52105;BME280;38103;42.776;23.112;2023-01-04T08:21:32;95009.84;;;6.11;100.00
52105;BME280;38103;42.776;23.112;2023-01-04T08:23:59;95047.22;;;6.36;100.00
52105;BME280;38103;42.776;23.112;2023-01-04T08:26:25;95019.72;;;6.24;100.00
52105;BME280;38103;42.776;23.112;2023-01-04T08:28:51;95043.28;;;6.32;100.00
52105;BME280;38103;42.776;23.112;2023-01-04T08:31:19;95017.66;;;6.19;100.00
52105;BME280;38103;42.776;23.112;2023-01-04T08:33:45;94997.47;;;6.20;100.00
52105;BME280;38103;42.776;23.112;2023-01-04T08:38:44;95039.84;;;6.47;100.00
52105;BME280;38103;42.776;23.112;2023-01-04T08:41:09;95038.25;;;6.46;100.00
52105;BME280;38103;42.776;23.112;2023-01-04T08:43:35;95028.81;;;6.36;100.00
52105;BME280;38103;42.776;23.112;2023-01-04T08:46:04;95040.13;;;6.37;100.00
52105;BME280;38103;42.776;23.112;2023-01-04T08:48:30;95043.56;;;6.37;100.00
52105;BME280;38103;42.776;23.112;2023-01-04T08:51:01;95034.06;;;6.36;100.00
52105;BME280;38103;42.776;23.112;2023-01-04T08:53:26;94998.81;;;6.00;100.00
52105;BME280;38103;42.776;23.112;2023-01-04T08:55:53;95040.03;;;6.30;100.00
52105;BME280;38103;42.776;23.112;2023-01-04T08:58:19;95035.13;;;6.27;100.00
52105;BME280;38103;42.776;23.112;2023-01-04T09:00:45;95029.81;;;6.20;100.00
52105;BME280;38103;42.776;23.112;2023-01-04T09:03:11;95016.41;;;6.15;100.00
52105;BME280;38103;42.776;23.112;2023-01-04T09:05:36;95032.97;;;6.16;100.00
52105;BME280;38103;42.776;23.112;2023-01-04T09:08:02;95030.16;;;6.17;100.00
52105;BME280;38103;42.776;23.112;2023-01-04T09:10:28;95027.72;;;6.16;100.00
52105;BME280;38103;42.776;23.112;2023-01-04T09:12:53;95030.69;;;6.12;100.00
52105;BME280;38103;42.776;23.112;2023-01-04T09:15:18;95029.88;;;6.27;100.00
52105;BME280;38103;42.776;23.112;2023-01-04T09:17:44;95022.91;;;6.19;100.00
52105;BME280;38103;42.776;23.112;2023-01-04T09:20:10;95031.97;;;6.17;100.00
52105;BME280;38103;42.776;23.112;2023-01-04T09:22:35;95035.88;;;6.21;100.00
52105;BME280;38103;42.776;23.112;2023-01-04T09:25:01;95033.53;;;6.26;100.00
52105;BME280;38103;42.776;23.112;2023-01-04T09:27:26;95045.66;;;6.27;100.00
52105;BME280;38103;42.776;23.112;2023-01-04T09:29:52;95028.63;;;6.23;100.00
52105;BME280;38103;42.776;23.112;2023-01-04T09:32:17;95030.06;;;6.10;100.00
52105;BME280;38103;42.776;23.112;2023-01-04T09:34:43;94966.97;;;5.80;100.00
52105;BME280;38103;42.776;23.112;2023-01-04T09:37:09;95025.38;;;6.21;100.00
52105;BME280;38103;42.776;23.112;2023-01-04T09:39:34;95018.84;;;6.17;100.00
52105;BME280;38103;42.776;23.112;2023-01-04T09:42:01;95021.03;;;6.28;100.00
52105;BME280;38103;42.776;23.112;2023-01-04T09:44:42;95023.47;;;6.30;100.00
52105;BME280;38103;42.776;23.112;2023-01-04T09:47:14;95022.19;;;6.41;100.00
52105;BME280;38103;42.776;23.112;2023-01-04T09:52:22;95014.88;;;6.51;100.00
52105;BME280;38103;42.776;23.112;2023-01-04T09:55:13;95013.50;;;6.55;100.00
52105;BME280;38103;42.776;23.112;2023-01-04T09:57:47;95006.09;;;6.44;100.00
52105;BME280;38103;42.776;23.112;2023-01-04T10:00:44;95015.22;;;6.48;100.00
52105;BME280;38103;42.776;23.112;2023-01-04T10:03:27;95026.19;;;6.52;100.00
52105;BME280;38103;42.776;23.112;2023-01-04T10:05:54;95018.13;;;6.53;100.00
52105;BME280;38103;42.776;23.112;2023-01-04T10:08:20;95020.03;;;6.59;100.00
52105;BME280;38103;42.776;23.112;2023-01-04T10:17:10;95008.16;;;6.64;100.00
52105;BME280;38103;42.776;23.112;2023-01-04T10:22:10;95009.03;;;6.71;100.00
52105;BME280;38103;42.776;23.112;2023-01-04T10:28:05;95006.88;;;6.59;100.00
52105;BME280;38103;42.776;23.112;2023-01-04T10:31:01;95000.00;;;6.58;100.00
52105;BME280;38103;42.776;23.112;2023-01-04T10:35:58;95004.88;;;6.62;100.00
52105;BME280;38103;42.776;23.112;2023-01-04T10:38:30;95006.22;;;6.57;100.00
52105;BME280;38103;42.776;23.112;2023-01-04T10:40:59;95004.88;;;6.62;100.00
52105;BME280;38103;42.776;23.112;2023-01-04T10:43:41;95000.88;;;6.66;100.00
52105;BME280;38103;42.776;23.112;2023-01-04T10:46:28;94998.22;;;6.81;100.00
52105;BME280;38103;42.776;23.112;2023-01-04T10:49:07;94972.25;;;6.71;100.00
52105;BME280;38103;42.776;23.112;2023-01-04T10:54:18;94996.84;;;7.00;100.00
52105;BME280;38103;42.776;23.112;2023-01-04T10:56:57;94966.03;;;6.94;100.00
52105;BME280;38103;42.776;23.112;2023-01-04T11:02:08;94989.91;;;7.36;100.00
52105;BME280;38103;42.776;23.112;2023-01-04T11:04:43;94988.56;;;7.47;100.00
52105;BME280;38103;42.776;23.112;2023-01-04T11:07:18;94984.75;;;7.50;100.00
52105;BME280;38103;42.776;23.112;2023-01-04T11:09:52;94979.19;;;7.60;100.00
52105;BME280;38103;42.776;23.112;2023-01-04T11:12:21;94975.53;;;7.61;100.00
52105;BME280;38103;42.776;23.112;2023-01-04T11:14:48;94979.19;;;7.60;100.00
52105;BME280;38103;42.776;23.112;2023-01-04T11:17:15;94976.13;;;7.56;100.00
52105;BME280;38103;42.776;23.112;2023-01-04T11:19:41;94973.19;;;7.44;100.00
52105;BME280;38103;42.776;23.112;2023-01-04T11:25:19;94966.41;;;7.35;100.00
52105;BME280;38103;42.776;23.112;2023-01-04T11:27:53;94962.00;;;7.42;100.00
52105;BME280;38103;42.776;23.112;2023-01-04T11:30:28;94971.06;;;7.55;100.00
52105;BME280;38103;42.776;23.112;2023-01-04T11:33:00;94967.34;;;7.49;100.00
52105;BME280;38103;42.776;23.112;2023-01-04T11:35:47;94953.63;;;7.54;100.00
52105;BME280;38103;42.776;23.112;2023-01-04T11:41:04;94959.06;;;7.81;100.00
52105;BME280;38103;42.776;23.112;2023-01-04T11:43:32;94952.53;;;7.99;100.00
52105;BME280;38103;42.776;23.112;2023-01-04T11:46:26;94955.00;;;8.07;100.00
52105;BME280;38103;42.776;23.112;2023-01-04T11:48:52;94958.78;;;8.33;99.20
52105;BME280;38103;42.776;23.112;2023-01-04T11:54:01;94936.44;;;8.65;95.61
52105;BME280;38103;42.776;23.112;2023-01-04T11:56:28;94942.78;;;8.77;95.56
52105;BME280;38103;42.776;23.112;2023-01-04T12:01:44;94941.34;;;8.81;92.87
52105;BME280;38103;42.776;23.112;2023-01-04T12:04:21;94940.13;;;8.77;92.96
52105;BME280;38103;42.776;23.112;2023-01-04T12:06:57;94940.03;;;8.57;92.62
52105;BME280;38103;42.776;23.112;2023-01-04T12:09:24;94947.25;;;8.34;94.16
52105;BME280;38103;42.776;23.112;2023-01-04T12:11:54;94905.38;;;8.04;95.22
52105;BME280;38103;42.776;23.112;2023-01-04T12:14:26;94949.97;;;8.12;95.50
52105;BME280;38103;42.776;23.112;2023-01-04T12:17:10;94927.94;;;7.91;96.37
52105;BME280;38103;42.776;23.112;2023-01-04T12:19:40;94945.84;;;7.96;96.21
52105;BME280;38103;42.776;23.112;2023-01-04T12:25:03;94945.66;;;7.76;98.83
52105;BME280;38103;42.776;23.112;2023-01-04T12:27:29;94942.03;;;7.77;98.66
52105;BME280;38103;42.776;23.112;2023-01-04T12:29:58;94941.66;;;7.80;98.80
52105;BME280;38103;42.776;23.112;2023-01-04T12:34:49;94941.91;;;7.85;98.68
52105;BME280;38103;42.776;23.112;2023-01-04T12:45:41;94933.41;;;7.83;98.65
52105;BME280;38103;42.776;23.112;2023-01-04T12:51:22;94884.22;;;7.90;97.68
52105;BME280;38103;42.776;23.112;2023-01-04T12:53:50;94891.56;;;8.02;96.32
52105;BME280;38103;42.776;23.112;2023-01-04T12:56:16;94907.50;;;8.29;96.35
52105;BME280;38103;42.776;23.112;2023-01-04T12:59:04;94928.06;;;8.54;96.41
52105;BME280;38103;42.776;23.112;2023-01-04T13:01:28;94920.41;;;8.59;95.38
52105;BME280;38103;42.776;23.112;2023-01-04T13:03:56;94927.94;;;8.63;94.87
52105;BME280;38103;42.776;23.112;2023-01-04T13:06:22;94935.59;;;8.57;95.53
52105;BME280;38103;42.776;23.112;2023-01-04T13:08:50;94926.72;;;8.65;95.23
52105;BME280;38103;42.776;23.112;2023-01-04T13:11:42;94925.91;;;8.65;94.58
52105;BME280;38103;42.776;23.112;2023-01-04T13:14:30;94932.81;;;8.66;94.47
52105;BME280;38103;42.776;23.112;2023-01-04T13:17:12;94933.88;;;8.43;94.78
52105;BME280;38103;42.776;23.112;2023-01-04T13:19:38;94935.47;;;8.30;95.58
52105;BME280;38103;42.776;23.112;2023-01-04T13:22:11;94941.44;;;8.10;96.28
52105;BME280;38103;42.776;23.112;2023-01-04T13:24:41;94946.63;;;7.97;96.63
52105;BME280;38103;42.776;23.112;2023-01-04T13:27:13;94952.91;;;7.96;97.35
52105;BME280;38103;42.776;23.112;2023-01-04T13:29:40;94948.16;;;7.84;97.75
52105;BME280;38103;42.776;23.112;2023-01-04T13:34:37;94950.94;;;7.76;98.96
52105;BME280;38103;42.776;23.112;2023-01-04T13:37:14;94948.22;;;7.62;99.77
52105;BME280;38103;42.776;23.112;2023-01-04T13:39:51;94940.09;;;7.57;99.95
52105;BME280;38103;42.776;23.112;2023-01-04T13:45:14;94954.56;;;7.46;100.00
52105;BME280;38103;42.776;23.112;2023-01-04T13:47:45;94953.00;;;7.52;100.00
52105;BME280;38103;42.776;23.112;2023-01-04T13:52:55;94945.47;;;7.48;100.00
52105;BME280;38103;42.776;23.112;2023-01-04T13:57:56;94948.16;;;7.26;100.00
52105;BME280;38103;42.776;23.112;2023-01-04T14:00:35;94945.25;;;7.21;100.00
52105;BME280;38103;42.776;23.112;2023-01-04T14:03:16;94943.50;;;7.07;100.00
52105;BME280;38103;42.776;23.112;2023-01-04T14:05:50;94940.25;;;7.04;100.00
52105;BME280;38103;42.776;23.112;2023-01-04T14:08:34;94945.06;;;7.01;100.00
52105;BME280;38103;42.776;23.112;2023-01-04T14:11:02;94938.13;;;6.93;100.00
52105;BME280;38103;42.776;23.112;2023-01-04T14:13:36;94941.78;;;6.77;100.00
52105;BME280;38103;42.776;23.112;2023-01-04T14:16:10;94946.41;;;6.75;100.00
52105;BME280;38103;42.776;23.112;2023-01-04T14:18:36;94945.34;;;6.69;100.00
52105;BME280;38103;42.776;23.112;2023-01-04T14:21:01;94950.69;;;6.61;100.00
52105;BME280;38103;42.776;23.112;2023-01-04T14:23:32;94938.56;;;6.59;100.00
52105;BME280;38103;42.776;23.112;2023-01-04T14:25:58;94898.94;;;6.24;100.00
52105;BME280;38103;42.776;23.112;2023-01-04T14:31:12;94937.66;;;6.52;100.00
52105;BME280;38103;42.776;23.112;2023-01-04T14:33:44;94932.63;;;6.35;100.00